Terminal Aerodrome Forecast
Issued by NWS

Home | Current Version | Previous Version | Text Only | Print | Product List | Glossary On
Versions: 1 2 3 4 5 6 7 8 9 10 11 12 13 14 15 16 17 18 19
827
FTUS41 KBTV 271855 AAA
TAFMPV
TAF AMD
KMPV 271855Z 2719/2818 17008KT 6SM BR OVC008
      TEMPO 2719/2723 5SM -SHRA BR OVC010
     FM280000 VRB03KT 5SM -DZ BR OVC008
     FM281500 17004KT 5SM -DZ BR OVC011=

USA.gov is the U.S. government's official web portal to all federal, state and local government web resources and services.